Time;durP1;ratioP1;P1;durP2;ratioP2;P2;SDS_P1;SDS_P2;PMS_P1;PMS_P2;Temp;Humidity;BMP_temperature;BMP_pressure;BME280_temperature;BME280_humidity;BME280_pressure;Samples;Min_cycle;Max_cycle;Signal;HPM_P1;HPM_P2
2022/07/26 00:03:53;;;;;;;8.38;4.88;;;;;;;;;;8399481;28;20055;-85
2022/07/26 00:08:09;;;;;;;9.35;5.35;;;;;;;;;;8399285;28;20036;-85
2022/07/26 00:12:12;;;;;;;6.70;4.68;;;;;;;;;;8399252;28;20472;-85
2022/07/26 00:16:15;;;;;;;6.70;4.78;;;;;;;;;;8398914;28;20045;-85
2022/07/26 00:20:17;;;;;;;6.43;4.75;;;;;;;;;;8392075;28;20048;-85
2022/07/26 00:24:21;;;;;;;6.80;4.60;;;;;;;;;;8392020;28;20044;-85
2022/07/26 00:28:24;;;;;;;5.80;4.57;;;;;;;;;;8394373;28;20056;-85
2022/07/26 00:32:27;;;;;;;7.65;4.97;;;;;;;;;;8398425;28;20486;-85
2022/07/26 00:36:30;;;;;;;8.00;5.13;;;;;;;;;;8398989;28;20532;-85
2022/07/26 00:40:34;;;;;;;7.38;4.60;;;;;;;;;;8398168;28;20071;-85
2022/07/26 00:44:38;;;;;;;7.15;4.50;;;;;;;;;;8604803;22;20053;-80
2022/07/26 00:48:40;;;;;;;7.53;4.93;;;;;;;;;;8398182;28;20044;-80
2022/07/26 00:52:43;;;;;;;6.95;4.57;;;;;;;;;;8381765;28;20403;-81
2022/07/26 00:56:48;;;;;;;6.65;4.70;;;;;;;;;;8365451;28;20122;-81
2022/07/26 01:00:50;;;;;;;6.63;4.70;;;;;;;;;;8364835;28;20047;-82
2022/07/26 01:04:53;;;;;;;7.25;4.85;;;;;;;;;;8380471;28;20083;-81
2022/07/26 01:08:56;;;;;;;7.63;4.95;;;;;;;;;;8383946;28;20040;-82
2022/07/26 01:13:00;;;;;;;6.30;4.00;;;;;;;;;;8410979;28;20052;-81
2022/07/26 01:17:03;;;;;;;10.10;6.55;;;;;;;;;;8426916;28;20088;-81
2022/07/26 01:21:08;;;;;;;8.25;5.10;;;;;;;;;;8422797;28;20044;-81
2022/07/26 01:25:12;;;;;;;8.55;5.25;;;;;;;;;;8405829;28;20071;-82
2022/07/26 01:29:15;;;;;;;6.95;5.03;;;;;;;;;;8418016;28;20044;-83
2022/07/26 01:33:17;;;;;;;7.05;5.00;;;;;;;;;;8414173;28;20077;-83
2022/07/26 01:37:20;;;;;;;7.65;4.97;;;;;;;;;;8403133;28;20044;-81
2022/07/26 01:41:24;;;;;;;6.60;4.43;;;;;;;;;;8400643;28;20048;-81
2022/07/26 01:45:27;;;;;;;6.82;4.55;;;;;;;;;;8399176;28;20458;-82
2022/07/26 01:49:29;;;;;;;6.75;4.72;;;;;;;;;;8379216;28;20048;-86
2022/07/26 01:53:32;;;;;;;7.30;4.82;;;;;;;;;;8386869;28;20048;-83
2022/07/26 01:57:36;;;;;;;5.68;4.47;;;;;;;;;;8390522;28;20101;-82
2022/07/26 02:01:39;;;;;;;6.38;4.72;;;;;;;;;;8383498;28;20051;-81
2022/07/26 02:05:41;;;;;;;7.30;4.60;;;;;;;;;;8369570;28;20417;-82
2022/07/26 02:09:44;;;;;;;7.88;4.68;;;;;;;;;;8382811;28;20609;-82
2022/07/26 02:13:48;;;;;;;7.50;5.03;;;;;;;;;;8385959;28;20040;-88
2022/07/26 02:17:50;;;;;;;6.40;5.10;;;;;;;;;;8381721;28;20403;-81
2022/07/26 02:21:53;;;;;;;6.45;5.10;;;;;;;;;;8419426;28;20097;-82
2022/07/26 02:25:56;;;;;;;6.43;4.60;;;;;;;;;;8430013;28;20152;-82
2022/07/26 02:30:00;;;;;;;7.55;5.22;;;;;;;;;;8399571;28;20068;-91
2022/07/26 02:34:03;;;;;;;7.57;4.80;;;;;;;;;;8418550;28;20048;-81
2022/07/26 02:38:08;;;;;;;7.75;5.18;;;;;;;;;;8423512;28;20048;-81
2022/07/26 02:42:11;;;;;;;7.28;4.90;;;;;;;;;;8396012;28;20066;-90
2022/07/26 02:46:15;;;;;;;9.02;4.75;;;;;;;;;;8420377;28;20575;-91
2022/07/26 02:50:18;;;;;;;7.93;4.85;;;;;;;;;;8429812;28;20079;-91
2022/07/26 02:54:21;;;;;;;8.43;4.65;;;;;;;;;;8435697;28;20426;-81
2022/07/26 02:58:25;;;;;;;7.30;5.07;;;;;;;;;;8435245;28;20075;-81
2022/07/26 03:02:29;;;;;;;6.28;4.70;;;;;;;;;;8435370;28;20560;-82
2022/07/26 03:06:32;;;;;;;7.50;5.07;;;;;;;;;;8435192;28;20607;-81
2022/07/26 03:10:34;;;;;;;9.65;5.28;;;;;;;;;;8434637;28;20040;-81
2022/07/26 03:14:37;;;;;;;8.63;5.38;;;;;;;;;;8420198;28;20437;-81
2022/07/26 03:18:41;;;;;;;8.70;4.65;;;;;;;;;;8434823;28;20040;-81
2022/07/26 03:22:44;;;;;;;6.75;4.22;;;;;;;;;;8419813;28;20127;-81
2022/07/26 03:26:46;;;;;;;9.38;5.18;;;;;;;;;;8434606;28;20404;-81
2022/07/26 03:30:49;;;;;;;15.75;4.97;;;;;;;;;;8434122;28;20055;-81
2022/07/26 03:34:53;;;;;;;9.88;4.97;;;;;;;;;;8434009;28;20044;-83
2022/07/26 03:38:56;;;;;;;8.27;5.45;;;;;;;;;;8434246;28;20040;-81
2022/07/26 03:42:58;;;;;;;9.90;5.03;;;;;;;;;;8419460;28;20041;-83
2022/07/26 03:47:01;;;;;;;7.43;5.32;;;;;;;;;;8400637;28;20057;-82
2022/07/26 03:51:05;;;;;;;8.35;4.90;;;;;;;;;;8419650;28;20044;-83
2022/07/26 03:59:26;;;;;;;10.13;5.78;;;;;;;;;;8432300;28;20047;-81
2022/07/26 04:03:28;;;;;;;7.65;5.50;;;;;;;;;;8428234;28;20552;-81
2022/07/26 04:07:32;;;;;;;7.03;4.95;;;;;;;;;;8432353;28;20403;-81
2022/07/26 04:11:35;;;;;;;7.13;4.88;;;;;;;;;;8399269;28;20070;-81
2022/07/26 04:15:38;;;;;;;6.22;4.80;;;;;;;;;;8421043;28;20048;-90
2022/07/26 04:19:40;;;;;;;8.52;4.93;;;;;;;;;;8432575;28;20142;-81
2022/07/26 04:23:45;;;;;;;7.10;5.22;;;;;;;;;;8418135;28;20048;-81
2022/07/26 04:28:02;;;;;;;6.78;4.95;;;;;;;;;;8387886;28;20550;-81
2022/07/26 04:32:06;;;;;;;7.13;4.80;;;;;;;;;;8432588;28;20063;-81
2022/07/26 04:36:09;;;;;;;7.28;5.00;;;;;;;;;;8432136;28;20040;-81
2022/07/26 04:40:18;;;;;;;7.55;5.07;;;;;;;;;;8417733;28;20446;-81
2022/07/26 04:44:20;;;;;;;7.70;5.38;;;;;;;;;;8391435;28;20406;-83
2022/07/26 04:48:23;;;;;;;9.70;5.15;;;;;;;;;;8432013;28;20540;-82
2022/07/26 04:52:26;;;;;;;15.93;5.43;;;;;;;;;;8417067;28;20495;-81
2022/07/26 04:56:30;;;;;;;9.07;4.43;;;;;;;;;;8431561;28;20053;-81
2022/07/26 05:00:33;;;;;;;6.85;4.35;;;;;;;;;;8431291;28;20043;-81
2022/07/26 05:04:36;;;;;;;6.57;5.00;;;;;;;;;;8417151;28;20043;-81
2022/07/26 05:08:40;;;;;;;7.10;4.47;;;;;;;;;;8431129;28;20048;-82
2022/07/26 05:12:45;;;;;;;6.32;3.85;;;;;;;;;;8403655;28;20374;-81
2022/07/26 05:16:48;;;;;;;7.75;3.78;;;;;;;;;;8422494;28;20047;-81
2022/07/26 05:20:51;;;;;;;5.80;3.90;;;;;;;;;;8425246;28;20041;-81
2022/07/26 05:24:54;;;;;;;9.20;4.03;;;;;;;;;;8414468;28;20041;-91
2022/07/26 05:29:01;;;;;;;5.88;3.92;;;;;;;;;;8391723;28;20048;-82
2022/07/26 05:33:09;;;;;;;6.90;3.92;;;;;;;;;;8391305;28;20463;-82
2022/07/26 05:37:19;;;;;;;6.45;3.85;;;;;;;;;;8427632;28;20071;-82
2022/07/26 05:41:23;;;;;;;6.20;3.92;;;;;;;;;;8419774;28;20041;-82
2022/07/26 05:45:28;;;;;;;5.13;3.67;;;;;;;;;;8422221;28;20102;-81
2022/07/26 05:49:32;;;;;;;5.35;3.60;;;;;;;;;;8414463;28;20432;-81
2022/07/26 05:53:35;;;;;;;6.50;3.72;;;;;;;;;;8429685;28;20107;-81
2022/07/26 05:57:40;;;;;;;5.60;3.60;;;;;;;;;;8411194;28;20045;-82
2022/07/26 06:01:47;;;;;;;7.90;3.40;;;;;;;;;;8390984;28;20059;-82
2022/07/26 06:05:52;;;;;;;5.75;3.35;;;;;;;;;;8429784;28;20075;-82
2022/07/26 06:09:56;;;;;;;7.22;3.25;;;;;;;;;;8418296;28;20102;-83
2022/07/26 06:13:59;;;;;;;8.70;3.50;;;;;;;;;;8403644;28;20120;-83
2022/07/26 06:18:03;;;;;;;5.30;3.20;;;;;;;;;;8410074;28;20079;-84
2022/07/26 06:22:06;;;;;;;7.45;3.63;;;;;;;;;;8410293;28;20105;-82
2022/07/26 06:26:11;;;;;;;5.53;3.83;;;;;;;;;;8384430;28;20049;-82
2022/07/26 06:30:14;;;;;;;7.00;3.50;;;;;;;;;;8396402;28;20071;-82
2022/07/26 06:34:18;;;;;;;9.07;3.53;;;;;;;;;;8434817;28;20082;-88
2022/07/26 06:38:21;;;;;;;7.40;3.65;;;;;;;;;;8421057;28;20128;-88
2022/07/26 06:42:24;;;;;;;5.90;3.78;;;;;;;;;;8434780;28;20123;-91
2022/07/26 06:46:27;;;;;;;5.82;3.30;;;;;;;;;;8415142;28;20101;-81
2022/07/26 06:50:33;;;;;;;8.43;3.72;;;;;;;;;;8405271;28;20052;-82
2022/07/26 06:54:36;;;;;;;7.10;4.18;;;;;;;;;;8396812;28;20044;-81
2022/07/26 06:58:40;;;;;;;6.38;3.90;;;;;;;;;;8417239;28;20040;-81
2022/07/26 07:02:43;;;;;;;5.63;3.83;;;;;;;;;;8405131;28;20044;-82
2022/07/26 07:06:48;;;;;;;6.53;3.83;;;;;;;;;;8419243;28;20056;-82
2022/07/26 07:10:52;;;;;;;5.18;3.58;;;;;;;;;;8420354;28;20048;-82
2022/07/26 07:14:55;;;;;;;6.50;4.07;;;;;;;;;;8418135;28;20044;-81
2022/07/26 07:18:58;;;;;;;7.35;3.95;;;;;;;;;;8422415;28;20040;-90
2022/07/26 07:23:06;;;;;;;5.40;4.13;;;;;;;;;;8390574;28;20041;-83
2022/07/26 07:27:11;;;;;;;4.90;3.60;;;;;;;;;;8373397;28;20053;-83
2022/07/26 07:31:20;;;;;;;9.88;4.95;;;;;;;;;;8388434;28;20059;-83
2022/07/26 07:35:25;;;;;;;9.15;4.30;;;;;;;;;;8390525;28;20517;-85
2022/07/26 07:39:39;;;;;;;8.23;4.45;;;;;;;;;;8365008;28;20495;-82
2022/07/26 07:43:43;;;;;;;6.05;4.10;;;;;;;;;;8381235;28;20063;-85
2022/07/26 07:47:50;;;;;;;8.15;4.32;;;;;;;;;;8394191;28;20612;-84
2022/07/26 07:51:55;;;;;;;7.88;4.32;;;;;;;;;;8368504;28;20067;-84
2022/07/26 07:56:02;;;;;;;7.40;4.85;;;;;;;;;;8396088;28;20147;-95
2022/07/26 08:00:06;;;;;;;7.78;4.97;;;;;;;;;;8382517;28;20046;-94
2022/07/26 08:04:09;;;;;;;7.88;5.00;;;;;;;;;;8398149;28;20056;-92
2022/07/26 08:08:12;;;;;;;7.60;5.18;;;;;;;;;;8432773;28;20047;-82
2022/07/26 08:12:18;;;;;;;6.75;4.97;;;;;;;;;;8410747;28;20044;-82
2022/07/26 08:16:21;;;;;;;7.47;5.18;;;;;;;;;;8427389;28;20051;-82
2022/07/26 08:20:25;;;;;;;9.20;5.13;;;;;;;;;;8432814;28;20040;-81
2022/07/26 08:24:28;;;;;;;7.32;5.07;;;;;;;;;;8422858;28;20460;-83
2022/07/26 08:28:33;;;;;;;8.00;5.25;;;;;;;;;;8429738;28;20537;-88
2022/07/26 08:32:36;;;;;;;9.82;4.93;;;;;;;;;;8418739;28;20482;-83
2022/07/26 08:36:40;;;;;;;8.98;5.72;;;;;;;;;;8432992;28;20036;-82
2022/07/26 08:40:43;;;;;;;9.05;5.13;;;;;;;;;;8432829;28;20532;-82
2022/07/26 08:44:49;;;;;;;7.65;4.95;;;;;;;;;;8432234;28;20064;-82
2022/07/26 08:48:52;;;;;;;7.53;5.60;;;;;;;;;;8431906;28;20441;-83
2022/07/26 08:53:02;;;;;;;8.13;4.93;;;;;;;;;;8432447;28;20040;-82
2022/07/26 08:57:06;;;;;;;8.50;5.30;;;;;;;;;;8431061;28;20048;-82
2022/07/26 09:01:12;;;;;;;6.28;4.90;;;;;;;;;;8408176;28;20480;-83
2022/07/26 09:05:18;;;;;;;8.27;5.15;;;;;;;;;;8430734;28;20415;-83
2022/07/26 09:09:21;;;;;;;8.43;4.80;;;;;;;;;;8431531;28;20044;-83
2022/07/26 09:13:24;;;;;;;6.50;4.65;;;;;;;;;;8416866;28;20036;-83
2022/07/26 09:17:40;;;;;;;9.52;4.93;;;;;;;;;;8431282;28;20071;-90
2022/07/26 09:21:43;;;;;;;8.13;5.25;;;;;;;;;;8427832;28;20052;-82
2022/07/26 09:25:47;;;;;;;7.53;5.13;;;;;;;;;;8396794;28;20044;-94
2022/07/26 09:29:53;;;;;;;9.05;5.55;;;;;;;;;;8391699;28;20072;-83
2022/07/26 09:33:59;;;;;;;9.20;4.88;;;;;;;;;;8412079;28;20040;-82
2022/07/26 09:38:18;;;;;;;11.40;5.20;;;;;;;;;;8378302;28;20044;-91
2022/07/26 09:42:24;;;;;;;8.77;5.38;;;;;;;;;;8395146;28;20072;-90
2022/07/26 09:46:34;;;;;;;8.60;5.05;;;;;;;;;;8393495;28;20137;-90
2022/07/26 09:50:48;;;;;;;14.43;5.32;;;;;;;;;;8377245;28;20055;-94
2022/07/26 09:55:05;;;;;;;12.60;5.15;;;;;;;;;;8387636;28;20408;-94
2022/07/26 09:59:11;;;;;;;10.23;5.25;;;;;;;;;;8394969;28;20131;-87
2022/07/26 10:03:16;;;;;;;10.90;5.63;;;;;;;;;;8405801;28;20509;-94
2022/07/26 10:07:25;;;;;;;12.98;4.82;;;;;;;;;;8423283;28;20076;-91
2022/07/26 10:11:38;;;;;;;9.02;5.30;;;;;;;;;;8426638;28;20052;-85
2022/07/26 10:15:43;;;;;;;13.95;5.15;;;;;;;;;;8406655;28;20094;-94
2022/07/26 10:19:47;;;;;;;8.20;4.85;;;;;;;;;;8408776;28;20502;-87
2022/07/26 10:23:55;;;;;;;7.00;4.90;;;;;;;;;;8394500;28;20075;-91
2022/07/26 10:28:00;;;;;;;11.55;5.72;;;;;;;;;;8409416;28;20044;-96
2022/07/26 10:32:30;;;;;;;9.60;4.97;;;;;;;;;;8392410;28;20056;-92
2022/07/26 10:36:36;;;;;;;12.40;5.80;;;;;;;;;;8408221;28;20052;-95
2022/07/26 10:40:58;;;;;;;11.82;5.32;;;;;;;;;;8412430;28;20629;-94
2022/07/26 10:45:18;;;;;;;11.82;4.93;;;;;;;;;;8406495;28;20067;-93
2022/07/26 10:49:33;;;;;;;10.00;5.63;;;;;;;;;;8395539;28;20063;-92
2022/07/26 10:53:37;;;;;;;13.10;5.38;;;;;;;;;;8411381;28;20499;-95
2022/07/26 10:57:47;;;;;;;17.85;6.68;;;;;;;;;;8412693;28;20051;-91
2022/07/26 11:01:51;;;;;;;13.55;7.40;;;;;;;;;;8417025;28;20400;-95
2022/07/26 11:05:57;;;;;;;14.40;6.82;;;;;;;;;;8399762;28;20043;-90
2022/07/26 11:10:02;;;;;;;12.82;6.85;;;;;;;;;;8416558;28;20049;-88
2022/07/26 11:14:11;;;;;;;15.43;8.23;;;;;;;;;;8398972;28;20046;-95
2022/07/26 11:18:21;;;;;;;12.77;7.32;;;;;;;;;;8416895;28;20052;-87
2022/07/26 11:22:34;;;;;;;11.23;6.77;;;;;;;;;;8407444;28;20055;-94
2022/07/26 11:26:47;;;;;;;10.20;7.15;;;;;;;;;;8406043;28;20068;-90
2022/07/26 11:31:05;;;;;;;8.80;6.40;;;;;;;;;;8403237;28;20074;-96
2022/07/26 11:35:10;;;;;;;10.90;7.00;;;;;;;;;;8401329;28;20052;-95
2022/07/26 11:39:17;;;;;;;12.50;7.72;;;;;;;;;;8402699;28;20183;-95
2022/07/26 11:43:26;;;;;;;12.68;7.78;;;;;;;;;;8401037;28;20476;-94
2022/07/26 11:47:32;;;;;;;11.25;7.65;;;;;;;;;;8367767;28;20053;-89
2022/07/26 11:51:35;;;;;;;12.80;7.80;;;;;;;;;;8376221;28;20044;-92
2022/07/26 11:55:39;;;;;;;11.93;7.95;;;;;;;;;;8344362;28;20049;-89
2022/07/26 11:59:45;;;;;;;10.70;7.95;;;;;;;;;;8327108;28;20045;-84
2022/07/26 12:03:53;;;;;;;12.95;8.13;;;;;;;;;;8343639;28;20052;-88
2022/07/26 12:08:01;;;;;;;15.57;8.77;;;;;;;;;;8343750;28;20480;-87
2022/07/26 12:12:07;;;;;;;16.05;8.60;;;;;;;;;;8359394;28;20056;-90
2022/07/26 12:16:12;;;;;;;14.15;9.63;;;;;;;;;;8361395;28;20066;-95
2022/07/26 12:20:22;;;;;;;12.88;9.60;;;;;;;;;;8347000;28;20049;-88
2022/07/26 12:24:45;;;;;;;15.65;9.82;;;;;;;;;;8361328;28;20099;-87
2022/07/26 12:28:49;;;;;;;11.73;8.65;;;;;;;;;;8359810;28;20102;-94
2022/07/26 12:33:03;;;;;;;15.88;8.18;;;;;;;;;;8351110;28;20116;-85
2022/07/26 12:37:17;;;;;;;10.75;7.15;;;;;;;;;;8334969;28;20132;-84
2022/07/26 12:41:36;;;;;;;12.05;8.23;;;;;;;;;;8344427;28;20115;-93
2022/07/26 12:45:54;;;;;;;;;;;;;;;;;;8359043;28;20057;-83
2022/07/26 12:50:17;;;;;;;15.57;8.70;;;;;;;;;;8375147;28;19924;-82
2022/07/26 12:54:57;;;;;;;15.55;8.73;;;;;;;;;;8365016;28;20610;-83
2022/07/26 12:59:09;;;;;;;16.30;8.05;;;;;;;;;;8368511;28;20467;-87
2022/07/26 13:03:24;;;;;;;10.32;6.43;;;;;;;;;;8370311;28;20076;-92
2022/07/26 13:07:39;;;;;;;9.25;6.55;;;;;;;;;;8383170;28;20079;-92
2022/07/26 13:11:47;;;;;;;8.50;5.82;;;;;;;;;;8396196;28;20090;-86
2022/07/26 13:16:05;;;;;;;8.75;5.28;;;;;;;;;;8398320;28;20052;-96
2022/07/26 13:20:12;;;;;;;6.30;4.53;;;;;;;;;;8397546;28;20043;-83
2022/07/26 13:24:21;;;;;;;7.53;4.70;;;;;;;;;;8388476;28;20492;-83
2022/07/26 13:28:50;;;;;;;7.13;4.65;;;;;;;;;;8361828;28;20060;-83
2022/07/26 13:38:13;;;;;;;9.40;5.00;;;;;;;;;;8375758;28;20398;-83
2022/07/26 13:42:27;;;;;;;14.02;5.90;;;;;;;;;;8390436;28;20514;-91
2022/07/26 13:46:33;;;;;;;9.90;4.75;;;;;;;;;;8400355;28;20392;-94
2022/07/26 13:50:45;;;;;;;10.32;4.78;;;;;;;;;;8409475;28;20044;-83
2022/07/26 13:55:01;;;;;;;8.15;4.85;;;;;;;;;;8394957;28;20044;-87
2022/07/26 13:59:10;;;;;;;8.73;4.50;;;;;;;;;;8382196;28;20120;-85
2022/07/26 14:03:38;;;;;;;5.75;3.85;;;;;;;;;;8396420;28;20109;-90
2022/07/26 14:12:20;;;;;;;;;;;;;;;;;;8376518;28;20067;-82
2022/07/26 14:16:33;;;;;;;5.85;3.30;;;;;;;;;;8362467;28;19924;-86
2022/07/26 14:20:53;;;;;;;6.80;3.75;;;;;;;;;;8375430;28;20079;-91
2022/07/26 14:25:16;;;;;;;10.68;4.72;;;;;;;;;;8416867;28;20040;-82
2022/07/26 14:29:42;;;;;;;8.88;4.32;;;;;;;;;;8398717;28;20040;-84
2022/07/26 14:33:59;;;;;;;13.38;5.30;;;;;;;;;;8400099;28;20083;-83
2022/07/26 14:38:12;;;;;;;7.13;4.55;;;;;;;;;;8393059;28;20102;-82
2022/07/26 14:42:23;;;;;;;8.75;4.45;;;;;;;;;;8409621;28;20193;-82
2022/07/26 14:46:28;;;;;;;7.95;4.63;;;;;;;;;;8427954;28;20404;-82
2022/07/26 14:50:39;;;;;;;6.78;4.15;;;;;;;;;;8422503;28;20045;-83
2022/07/26 14:54:47;;;;;;;6.28;4.07;;;;;;;;;;8368875;28;20126;-82
2022/07/26 14:58:55;;;;;;;6.53;4.32;;;;;;;;;;8388777;28;20044;-83
2022/07/26 15:03:20;;;;;;;9.68;5.38;;;;;;;;;;8426696;28;20044;-83
2022/07/26 15:07:27;;;;;;;9.73;5.75;;;;;;;;;;8423082;28;20040;-84
2022/07/26 15:11:35;;;;;;;9.43;5.82;;;;;;;;;;8419185;28;20063;-82
2022/07/26 15:15:47;;;;;;;;;;;;;;;;;;8407905;28;20074;-83
2022/07/26 15:20:03;;;;;;;9.65;5.88;;;;;;;;;;8403048;28;19920;-82
2022/07/26 15:24:23;;;;;;;9.25;6.57;;;;;;;;;;8434122;28;20117;-82
2022/07/26 15:28:44;;;;;;;9.35;6.45;;;;;;;;;;8434475;28;20054;-82
2022/07/26 15:33:01;;;;;;;10.57;6.60;;;;;;;;;;8434549;28;20403;-81
2022/07/26 15:37:10;;;;;;;9.38;5.85;;;;;;;;;;8434222;28;20059;-82
2022/07/26 15:41:24;;;;;;;9.65;5.95;;;;;;;;;;8433583;28;20037;-82
2022/07/26 15:51:09;;;;;;;9.55;6.45;;;;;;;;;;8428430;28;20047;-82
2022/07/26 15:55:25;;;;;;;11.50;6.53;;;;;;;;;;8419360;28;20486;-82
2022/07/26 15:59:44;;;;;;;11.43;6.50;;;;;;;;;;8418467;28;20040;-82
2022/07/26 16:04:17;;;;;;;7.68;5.70;;;;;;;;;;8436073;28;20043;-82
2022/07/26 16:08:25;;;;;;;11.13;6.18;;;;;;;;;;8406295;28;20136;-81
2022/07/26 16:12:30;;;;;;;14.95;7.90;;;;;;;;;;8442678;28;20126;-82
2022/07/26 16:16:48;;;;;;;9.10;6.22;;;;;;;;;;8440207;28;20048;-82
2022/07/26 16:21:11;;;;;;;11.63;6.68;;;;;;;;;;8400376;28;20076;-81
2022/07/26 16:25:37;;;;;;;11.55;6.07;;;;;;;;;;8389630;28;20045;-81
2022/07/26 16:29:56;;;;;;;10.45;6.57;;;;;;;;;;8430450;28;20044;-81
2022/07/26 16:34:33;;;;;;;13.85;7.00;;;;;;;;;;8438648;28;20066;-81
2022/07/26 16:38:57;;;;;;;11.75;6.97;;;;;;;;;;8435984;28;20036;-81
2022/07/26 16:43:00;;;;;;;9.70;7.28;;;;;;;;;;8399811;28;20057;-81
2022/07/26 16:47:06;;;;;;;11.20;7.03;;;;;;;;;;8392651;28;20487;-82
2022/07/26 16:51:10;;;;;;;9.43;5.97;;;;;;;;;;8389123;28;20065;-81
2022/07/26 16:55:16;;;;;;;11.32;6.30;;;;;;;;;;8398987;28;20072;-81
2022/07/26 16:59:21;;;;;;;10.00;6.13;;;;;;;;;;8373446;28;20087;-81
2022/07/26 17:03:24;;;;;;;11.77;6.00;;;;;;;;;;8377912;28;20133;-91
2022/07/26 17:07:28;;;;;;;11.32;6.15;;;;;;;;;;8376956;28;20045;-82
2022/07/26 17:11:33;;;;;;;9.07;5.60;;;;;;;;;;8373744;28;20040;-81
2022/07/26 17:15:38;;;;;;;14.18;6.30;;;;;;;;;;8367412;28;20063;-82
2022/07/26 17:19:41;;;;;;;14.90;6.78;;;;;;;;;;8408482;28;20048;-80
2022/07/26 17:23:45;;;;;;;10.98;6.03;;;;;;;;;;8421749;28;20049;-80
2022/07/26 17:27:50;;;;;;;9.80;5.82;;;;;;;;;;8400117;28;20141;-83
2022/07/26 17:31:57;;;;;;;9.68;5.50;;;;;;;;;;8374515;28;20051;-81
2022/07/26 17:36:02;;;;;;;8.63;5.10;;;;;;;;;;8391566;28;20055;-81
2022/07/26 17:40:09;;;;;;;11.18;5.47;;;;;;;;;;8396803;28;20461;-81
2022/07/26 17:44:14;;;;;;;10.48;5.65;;;;;;;;;;8382934;28;20059;-81
2022/07/26 17:48:18;;;;;;;8.30;5.40;;;;;;;;;;8380271;28;20048;-81
2022/07/26 17:52:25;;;;;;;9.40;5.68;;;;;;;;;;8384548;28;20041;-81
2022/07/26 17:56:30;;;;;;;9.27;6.10;;;;;;;;;;8379752;28;20049;-81
2022/07/26 18:00:46;;;;;;;10.05;6.47;;;;;;;;;;8383515;28;20124;-81
2022/07/26 18:04:55;;;;;;;11.75;6.22;;;;;;;;;;8387563;28;20044;-81
2022/07/26 18:08:58;;;;;;;11.45;6.45;;;;;;;;;;8382638;28;20075;-82
2022/07/26 18:13:09;;;;;;;11.77;6.88;;;;;;;;;;8391485;28;20047;-81
2022/07/26 18:17:17;;;;;;;12.88;7.22;;;;;;;;;;8386835;28;20139;-81
2022/07/26 18:21:27;;;;;;;11.45;7.30;;;;;;;;;;8389991;28;20045;-81
2022/07/26 18:25:30;;;;;;;11.25;6.38;;;;;;;;;;8398747;28;20132;-80
2022/07/26 18:29:35;;;;;;;10.45;6.40;;;;;;;;;;8425151;28;20044;-80
2022/07/26 18:33:40;;;;;;;9.75;5.95;;;;;;;;;;8412286;28;20049;-83
2022/07/26 18:37:45;;;;;;;9.73;5.93;;;;;;;;;;8389985;28;20492;-82
2022/07/26 18:41:50;;;;;;;11.23;6.30;;;;;;;;;;8396061;28;20072;-82
2022/07/26 18:45:55;;;;;;;8.88;6.18;;;;;;;;;;8397920;28;20048;-82
2022/07/26 18:50:00;;;;;;;11.50;6.10;;;;;;;;;;8406499;28;20052;-82
2022/07/26 18:54:04;;;;;;;10.15;6.15;;;;;;;;;;8401406;28;20051;-81
2022/07/26 18:58:09;;;;;;;9.25;6.78;;;;;;;;;;8436036;28;20040;-81
2022/07/26 19:02:18;;;;;;;9.73;5.90;;;;;;;;;;8393218;28;20041;-81
2022/07/26 19:06:23;;;;;;;11.85;6.75;;;;;;;;;;8388012;28;20445;-81
2022/07/26 19:10:27;;;;;;;10.35;6.90;;;;;;;;;;8417558;28;20482;-81
2022/07/26 19:14:30;;;;;;;9.00;6.57;;;;;;;;;;8419048;28;20055;-80
2022/07/26 19:18:34;;;;;;;8.57;5.70;;;;;;;;;;8422184;28;20472;-81
2022/07/26 19:22:40;;;;;;;10.27;6.00;;;;;;;;;;8437034;28;20452;-80
2022/07/26 19:26:44;;;;;;;9.93;6.43;;;;;;;;;;8407943;28;20045;-80
2022/07/26 19:30:47;;;;;;;10.80;5.85;;;;;;;;;;8430506;28;20472;-80
2022/07/26 19:34:54;;;;;;;11.90;6.28;;;;;;;;;;8429592;28;20054;-80
2022/07/26 19:39:02;;;;;;;9.15;5.90;;;;;;;;;;8439183;28;20078;-81
2022/07/26 19:43:07;;;;;;;9.02;6.57;;;;;;;;;;8436878;28;20127;-81
2022/07/26 19:47:11;;;;;;;10.63;6.20;;;;;;;;;;8435548;28;20063;-81
2022/07/26 19:51:17;;;;;;;8.25;5.85;;;;;;;;;;8415830;28;20049;-81
2022/07/26 19:55:22;;;;;;;12.65;6.65;;;;;;;;;;8415371;28;20101;-81
2022/07/26 19:59:26;;;;;;;8.80;5.85;;;;;;;;;;8435425;28;20044;-81
2022/07/26 20:03:29;;;;;;;9.48;6.32;;;;;;;;;;8420232;28;20127;-81
2022/07/26 20:07:33;;;;;;;9.98;5.53;;;;;;;;;;8405126;28;20094;-81
2022/07/26 20:11:38;;;;;;;10.02;6.10;;;;;;;;;;8418576;28;20382;-80
2022/07/26 20:15:41;;;;;;;10.60;6.70;;;;;;;;;;8423346;28;20048;-80
2022/07/26 20:19:45;;;;;;;12.57;6.95;;;;;;;;;;8405700;28;20119;-80
2022/07/26 20:23:49;;;;;;;9.00;6.25;;;;;;;;;;8405054;28;20412;-94
2022/07/26 20:27:54;;;;;;;7.82;6.00;;;;;;;;;;8433161;28;20377;-80
2022/07/26 20:31:57;;;;;;;9.75;6.50;;;;;;;;;;8418695;28;20051;-89
2022/07/26 20:36:00;;;;;;;8.35;6.38;;;;;;;;;;8433143;28;20546;-80
2022/07/26 20:40:05;;;;;;;10.55;6.57;;;;;;;;;;8419388;28;20472;-80
2022/07/26 20:44:11;;;;;;;8.13;6.07;;;;;;;;;;8430550;28;20074;-80
2022/07/26 20:48:15;;;;;;;9.55;6.07;;;;;;;;;;8432216;28;20105;-81
2022/07/26 20:52:18;;;;;;;8.82;6.00;;;;;;;;;;8417614;28;20055;-82
2022/07/26 20:56:22;;;;;;;11.68;7.20;;;;;;;;;;8425215;28;20404;-82
2022/07/26 21:00:27;;;;;;;9.07;6.65;;;;;;;;;;8412733;28;20068;-81
2022/07/26 21:04:30;;;;;;;10.38;6.60;;;;;;;;;;8416552;28;20611;-81
2022/07/26 21:08:33;;;;;;;11.32;7.30;;;;;;;;;;8407598;28;20041;-91
2022/07/26 21:12:37;;;;;;;13.10;6.78;;;;;;;;;;8416270;28;20049;-81
2022/07/26 21:16:41;;;;;;;12.70;6.63;;;;;;;;;;8426569;28;20040;-81
2022/07/26 21:20:45;;;;;;;10.32;7.03;;;;;;;;;;8405230;28;20043;-81
2022/07/26 21:24:48;;;;;;;8.88;6.25;;;;;;;;;;8430978;28;20106;-81
2022/07/26 21:28:52;;;;;;;12.25;7.15;;;;;;;;;;8425961;28;20044;-81
2022/07/26 21:32:56;;;;;;;8.30;6.80;;;;;;;;;;8421610;28;20054;-81
2022/07/26 21:37:00;;;;;;;12.30;6.97;;;;;;;;;;8431263;28;20051;-95
2022/07/26 21:41:03;;;;;;;13.88;7.05;;;;;;;;;;8423294;28;20067;-81
2022/07/26 21:45:08;;;;;;;13.48;6.82;;;;;;;;;;8423221;28;20560;-92
2022/07/26 21:49:12;;;;;;;7.53;6.53;;;;;;;;;;8430073;28;20035;-82
2022/07/26 21:53:15;;;;;;;11.80;6.63;;;;;;;;;;8430161;28;20047;-81
2022/07/26 21:57:18;;;;;;;8.75;6.15;;;;;;;;;;8429235;28;20048;-81
2022/07/26 22:01:22;;;;;;;8.93;6.47;;;;;;;;;;8429981;28;20044;-83
2022/07/26 22:05:36;;;;;;;13.48;6.93;;;;;;;;;;8429985;28;20052;-81
2022/07/26 22:09:39;;;;;;;10.82;6.50;;;;;;;;;;8430304;28;20400;-81
2022/07/26 22:13:43;;;;;;;8.27;6.50;;;;;;;;;;8415483;28;20127;-81
2022/07/26 22:17:46;;;;;;;8.15;6.75;;;;;;;;;;8430092;28;20040;-81
2022/07/26 22:21:50;;;;;;;9.65;6.72;;;;;;;;;;8429848;28;20048;-81
2022/07/26 22:25:54;;;;;;;15.57;7.07;;;;;;;;;;8429923;28;20123;-81
2022/07/26 22:29:56;;;;;;;11.07;7.15;;;;;;;;;;8429687;28;20113;-81
2022/07/26 22:33:59;;;;;;;9.50;6.72;;;;;;;;;;8429458;28;20425;-81
2022/07/26 22:38:04;;;;;;;11.93;7.25;;;;;;;;;;8429541;28;20048;-81
2022/07/26 22:42:07;;;;;;;8.75;6.95;;;;;;;;;;8429297;28;20472;-81
2022/07/26 22:46:10;;;;;;;10.65;7.85;;;;;;;;;;8429231;28;20055;-81
2022/07/26 22:50:13;;;;;;;11.25;8.30;;;;;;;;;;8429844;28;20396;-82
2022/07/26 22:54:16;;;;;;;11.07;8.15;;;;;;;;;;8429261;28;20047;-92
2022/07/26 22:58:19;;;;;;;13.93;9.82;;;;;;;;;;8429968;28;20041;-93
2022/07/26 23:02:22;;;;;;;16.23;11.05;;;;;;;;;;8414862;28;20044;-83
2022/07/26 23:06:25;;;;;;;20.85;13.80;;;;;;;;;;8429198;28;20097;-83
2022/07/26 23:10:29;;;;;;;27.33;18.20;;;;;;;;;;8419640;28;20059;-82
2022/07/26 23:14:32;;;;;;;24.42;15.00;;;;;;;;;;8421023;28;20048;-82
2022/07/26 23:18:34;;;;;;;29.60;17.60;;;;;;;;;;8432223;28;20448;-82
2022/07/26 23:22:40;;;;;;;25.17;16.38;;;;;;;;;;8425215;28;20048;-83
2022/07/26 23:26:44;;;;;;;34.15;21.48;;;;;;;;;;8428531;28;20049;-83
2022/07/26 23:30:47;;;;;;;35.88;20.35;;;;;;;;;;8386815;28;20048;-96
2022/07/26 23:34:50;;;;;;;30.55;19.40;;;;;;;;;;8392370;28;20045;-83
2022/07/26 23:38:54;;;;;;;27.80;20.27;;;;;;;;;;8419710;28;20048;-83
2022/07/26 23:42:58;;;;;;;34.20;20.88;;;;;;;;;;8390205;28;20048;-83
2022/07/26 23:47:01;;;;;;;34.88;21.50;;;;;;;;;;8401363;28;20125;-83
2022/07/26 23:51:03;;;;;;;36.53;22.45;;;;;;;;;;8401300;28;20045;-83
2022/07/26 23:55:07;;;;;;;29.95;20.38;;;;;;;;;;8389310;28;20123;-83
2022/07/26 23:59:11;;;;;;;32.42;20.80;;;;;;;;;;8380225;28;20096;-83
